sensor_id;sensor_type;location;lat;lon;timestamp;pressure;altitude;pressure_sealevel;temperature;humidity
30897;BME280;64229;52.246;21.054;2023-10-13T00:01:21;100576.50;;;10.18;100.00
30897;BME280;64229;52.246;21.054;2023-10-13T00:03:47;100587.44;;;10.17;100.00
30897;BME280;64229;52.246;21.054;2023-10-13T00:06:12;100590.03;;;10.33;100.00
30897;BME280;64229;52.246;21.054;2023-10-13T00:08:37;100585.31;;;10.19;100.00
30897;BME280;64229;52.246;21.054;2023-10-13T00:11:05;100598.56;;;10.08;100.00
30897;BME280;64229;52.246;21.054;2023-10-13T00:13:30;100599.47;;;10.19;100.00
30897;BME280;64229;52.246;21.054;2023-10-13T00:16:06;100597.41;;;10.26;100.00
30897;BME280;64229;52.246;21.054;2023-10-13T00:18:34;100591.63;;;10.07;100.00
30897;BME280;64229;52.246;21.054;2023-10-13T00:21:03;100599.28;;;9.99;100.00
30897;BME280;64229;52.246;21.054;2023-10-13T00:23:37;100596.31;;;9.95;100.00
30897;BME280;64229;52.246;21.054;2023-10-13T00:26:02;100582.59;;;9.81;100.00
30897;BME280;64229;52.246;21.054;2023-10-13T00:28:28;100590.91;;;9.85;100.00
30897;BME280;64229;52.246;21.054;2023-10-13T00:31:10;100592.72;;;9.79;100.00
30897;BME280;64229;52.246;21.054;2023-10-13T00:33:38;100593.81;;;10.10;100.00
30897;BME280;64229;52.246;21.054;2023-10-13T00:36:05;100602.94;;;10.20;100.00
30897;BME280;64229;52.246;21.054;2023-10-13T00:38:32;100601.72;;;10.00;100.00
30897;BME280;64229;52.246;21.054;2023-10-13T00:40:57;100605.56;;;9.88;100.00
30897;BME280;64229;52.246;21.054;2023-10-13T00:43:31;100606.78;;;9.75;100.00
30897;BME280;64229;52.246;21.054;2023-10-13T00:46:00;100606.75;;;9.70;100.00
30897;BME280;64229;52.246;21.054;2023-10-13T00:48:32;100616.34;;;9.71;100.00
30897;BME280;64229;52.246;21.054;2023-10-13T00:51:04;100609.66;;;9.68;100.00
30897;BME280;64229;52.246;21.054;2023-10-13T00:53:36;100620.66;;;9.77;100.00
30897;BME280;64229;52.246;21.054;2023-10-13T00:56:06;100618.50;;;9.74;100.00
30897;BME280;64229;52.246;21.054;2023-10-13T00:58:36;100613.25;;;9.79;100.00
30897;BME280;64229;52.246;21.054;2023-10-13T01:01:04;100609.78;;;9.78;100.00
30897;BME280;64229;52.246;21.054;2023-10-13T01:03:48;100609.19;;;9.76;100.00
30897;BME280;64229;52.246;21.054;2023-10-13T01:06:16;100596.44;;;9.78;100.00
30897;BME280;64229;52.246;21.054;2023-10-13T01:08:42;100602.81;;;9.77;100.00
30897;BME280;64229;52.246;21.054;2023-10-13T01:11:10;100609.66;;;9.68;100.00
30897;BME280;64229;52.246;21.054;2023-10-13T01:13:35;100608.78;;;9.63;100.00
30897;BME280;64229;52.246;21.054;2023-10-13T01:16:06;100624.28;;;9.66;100.00
30897;BME280;64229;52.246;21.054;2023-10-13T01:18:33;100620.56;;;9.67;100.00
30897;BME280;64229;52.246;21.054;2023-10-13T01:21:05;100619.44;;;9.63;100.00
30897;BME280;64229;52.246;21.054;2023-10-13T01:23:31;100625.84;;;9.62;100.00
30897;BME280;64229;52.246;21.054;2023-10-13T01:26:03;100620.44;;;9.56;100.00
30897;BME280;64229;52.246;21.054;2023-10-13T01:28:30;100630.88;;;9.58;100.00
30897;BME280;64229;52.246;21.054;2023-10-13T01:30:55;100624.91;;;9.73;100.00
30897;BME280;64229;52.246;21.054;2023-10-13T01:33:21;100633.94;;;9.72;100.00
30897;BME280;64229;52.246;21.054;2023-10-13T01:35:55;100625.84;;;9.62;100.00
30897;BME280;64229;52.246;21.054;2023-10-13T01:38:22;100625.78;;;9.56;100.00
30897;BME280;64229;52.246;21.054;2023-10-13T01:40:47;100636.22;;;9.58;100.00
30897;BME280;64229;52.246;21.054;2023-10-13T01:43:16;100640.16;;;9.55;100.00
30897;BME280;64229;52.246;21.054;2023-10-13T01:45:42;100637.75;;;9.54;100.00
30897;BME280;64229;52.246;21.054;2023-10-13T01:48:12;100633.53;;;9.58;100.00
30897;BME280;64229;52.246;21.054;2023-10-13T01:50:41;100630.66;;;9.65;100.00
30897;BME280;64229;52.246;21.054;2023-10-13T01:53:07;100624.53;;;9.64;100.00
30897;BME280;64229;52.246;21.054;2023-10-13T01:55:39;100623.06;;;9.51;100.00
30897;BME280;64229;52.246;21.054;2023-10-13T01:58:09;100634.41;;;9.42;100.00
30897;BME280;64229;52.246;21.054;2023-10-13T02:00:40;100625.59;;;9.41;100.00
30897;BME280;64229;52.246;21.054;2023-10-13T02:03:08;100611.41;;;9.36;100.00
30897;BME280;64229;52.246;21.054;2023-10-13T02:05:43;100611.09;;;9.32;100.00
30897;BME280;64229;52.246;21.054;2023-10-13T02:08:13;100621.75;;;9.32;100.00
30897;BME280;64229;52.246;21.054;2023-10-13T02:10:51;100620.41;;;9.30;100.00
30897;BME280;64229;52.246;21.054;2023-10-13T02:13:18;100612.91;;;9.26;100.00
30897;BME280;64229;52.246;21.054;2023-10-13T02:15:45;100604.22;;;9.14;100.00
30897;BME280;64229;52.246;21.054;2023-10-13T02:18:13;100614.16;;;9.19;100.00
30897;BME280;64229;52.246;21.054;2023-10-13T02:20:39;100626.34;;;9.15;100.00
30897;BME280;64229;52.246;21.054;2023-10-13T02:23:08;100630.56;;;9.11;100.00
30897;BME280;64229;52.246;21.054;2023-10-13T02:25:36;100626.53;;;9.08;100.00
30897;BME280;64229;52.246;21.054;2023-10-13T02:28:08;100621.94;;;9.04;100.00
30897;BME280;64229;52.246;21.054;2023-10-13T02:30:39;100621.63;;;9.00;100.00
30897;BME280;64229;52.246;21.054;2023-10-13T02:33:04;100627.69;;;8.95;100.00
30897;BME280;64229;52.246;21.054;2023-10-13T02:35:31;100622.28;;;8.90;100.00
30897;BME280;64229;52.246;21.054;2023-10-13T02:38:09;100629.97;;;8.87;100.00
30897;BME280;64229;52.246;21.054;2023-10-13T02:40:40;100623.44;;;8.78;100.00
30897;BME280;64229;52.246;21.054;2023-10-13T02:43:05;100637.56;;;8.78;100.00
30897;BME280;64229;52.246;21.054;2023-10-13T02:45:34;100630.56;;;8.72;100.00
30897;BME280;64229;52.246;21.054;2023-10-13T02:48:03;100636.59;;;8.67;100.00
30897;BME280;64229;52.246;21.054;2023-10-13T02:50:37;100631.44;;;8.61;100.00
30897;BME280;64229;52.246;21.054;2023-10-13T02:53:04;100634.09;;;8.61;100.00
30897;BME280;64229;52.246;21.054;2023-10-13T02:55:37;100613.09;;;8.43;100.00
30897;BME280;64229;52.246;21.054;2023-10-13T02:58:04;100626.19;;;8.49;100.00
30897;BME280;64229;52.246;21.054;2023-10-13T03:00:29;100631.13;;;8.40;100.00
30897;BME280;64229;52.246;21.054;2023-10-13T03:02:57;100634.06;;;8.27;100.00
30897;BME280;64229;52.246;21.054;2023-10-13T03:05:26;100629.16;;;8.19;100.00
30897;BME280;64229;52.246;21.054;2023-10-13T03:07:54;100625.28;;;8.10;100.00
30897;BME280;64229;52.246;21.054;2023-10-13T03:10:20;100630.25;;;8.06;100.00
30897;BME280;64229;52.246;21.054;2023-10-13T03:12:46;100630.41;;;8.00;100.00
30897;BME280;64229;52.246;21.054;2023-10-13T03:15:14;100619.69;;;7.95;100.00
30897;BME280;64229;52.246;21.054;2023-10-13T03:17:55;100617.75;;;7.90;100.00
30897;BME280;64229;52.246;21.054;2023-10-13T03:20:23;100616.38;;;7.88;100.00
30897;BME280;64229;52.246;21.054;2023-10-13T03:22:58;100618.75;;;8.01;100.00
30897;BME280;64229;52.246;21.054;2023-10-13T03:25:24;100613.56;;;7.94;100.00
30897;BME280;64229;52.246;21.054;2023-10-13T03:27:51;100609.06;;;7.95;100.00
30897;BME280;64229;52.246;21.054;2023-10-13T03:30:16;100620.03;;;7.98;100.00
30897;BME280;64229;52.246;21.054;2023-10-13T03:32:42;100613.06;;;7.97;100.00
30897;BME280;64229;52.246;21.054;2023-10-13T03:35:11;100613.91;;;7.98;100.00
30897;BME280;64229;52.246;21.054;2023-10-13T03:37:53;100611.25;;;7.98;100.00
30897;BME280;64229;52.246;21.054;2023-10-13T03:40:20;100618.25;;;8.04;100.00
30897;BME280;64229;52.246;21.054;2023-10-13T03:42:46;100616.88;;;8.01;100.00
30897;BME280;64229;52.246;21.054;2023-10-13T03:45:34;100618.81;;;8.06;100.00
30897;BME280;64229;52.246;21.054;2023-10-13T03:48:11;100629.44;;;8.06;100.00
30897;BME280;64229;52.246;21.054;2023-10-13T03:50:41;100621.91;;;7.86;100.00
30897;BME280;64229;52.246;21.054;2023-10-13T03:53:25;100628.34;;;7.73;100.00
30897;BME280;64229;52.246;21.054;2023-10-13T03:55:51;100630.44;;;7.71;100.00
30897;BME280;64229;52.246;21.054;2023-10-13T03:58:33;100629.06;;;7.69;100.00
30897;BME280;64229;52.246;21.054;2023-10-13T04:00:59;100626.44;;;7.57;100.00
30897;BME280;64229;52.246;21.054;2023-10-13T04:03:25;100616.91;;;7.44;100.00
30897;BME280;64229;52.246;21.054;2023-10-13T04:05:58;100627.63;;;7.49;100.00
30897;BME280;64229;52.246;21.054;2023-10-13T04:08:31;100628.19;;;7.51;100.00
30897;BME280;64229;52.246;21.054;2023-10-13T04:11:08;100630.63;;;7.41;100.00
30897;BME280;64229;52.246;21.054;2023-10-13T04:13:52;100640.13;;;7.37;100.00
30897;BME280;64229;52.246;21.054;2023-10-13T04:16:36;100633.19;;;7.36;100.00
30897;BME280;64229;52.246;21.054;2023-10-13T04:19:03;100635.13;;;7.41;100.00
30897;BME280;64229;52.246;21.054;2023-10-13T04:21:33;100636.63;;;7.48;100.00
30897;BME280;64229;52.246;21.054;2023-10-13T04:24:06;100626.69;;;7.56;100.00
30897;BME280;64229;52.246;21.054;2023-10-13T04:26:44;100619.28;;;7.58;100.00
30897;BME280;64229;52.246;21.054;2023-10-13T04:29:29;100625.84;;;7.67;100.00
30897;BME280;64229;52.246;21.054;2023-10-13T04:32:17;100622.38;;;7.66;100.00
30897;BME280;64229;52.246;21.054;2023-10-13T04:34:57;100625.72;;;7.62;100.00
30897;BME280;64229;52.246;21.054;2023-10-13T04:37:33;100629.47;;;7.49;100.00
30897;BME280;64229;52.246;21.054;2023-10-13T04:40:13;100625.69;;;7.45;100.00
30897;BME280;64229;52.246;21.054;2023-10-13T04:42:40;100622.66;;;7.41;100.00
30897;BME280;64229;52.246;21.054;2023-10-13T04:45:16;100635.13;;;7.41;100.00
30897;BME280;64229;52.246;21.054;2023-10-13T04:47:58;100646.81;;;7.40;100.00
30897;BME280;64229;52.246;21.054;2023-10-13T04:50:49;100639.41;;;7.42;100.00
30897;BME280;64229;52.246;21.054;2023-10-13T04:53:23;100634.00;;;7.37;100.00
30897;BME280;64229;52.246;21.054;2023-10-13T04:55:56;100620.38;;;7.33;100.00
30897;BME280;64229;52.246;21.054;2023-10-13T04:58:27;100626.94;;;7.42;100.00
30897;BME280;64229;52.246;21.054;2023-10-13T05:01:12;100623.72;;;7.40;100.00
30897;BME280;64229;52.246;21.054;2023-10-13T05:03:50;100623.09;;;7.50;100.00
30897;BME280;64229;52.246;21.054;2023-10-13T05:06:31;100627.38;;;7.51;100.00
30897;BME280;64229;52.246;21.054;2023-10-13T05:09:12;100623.22;;;7.55;100.00
30897;BME280;64229;52.246;21.054;2023-10-13T05:11:56;100628.75;;;7.53;100.00
30897;BME280;64229;52.246;21.054;2023-10-13T05:14:40;100633.59;;;7.57;100.00
30897;BME280;64229;52.246;21.054;2023-10-13T05:17:24;100629.44;;;7.61;100.00
30897;BME280;64229;52.246;21.054;2023-10-13T05:20:08;100628.94;;;7.64;100.00
30897;BME280;64229;52.246;21.054;2023-10-13T05:22:52;100637.84;;;7.98;100.00
30897;BME280;64229;52.246;21.054;2023-10-13T05:25:37;100654.66;;;8.03;100.00
30897;BME280;64229;52.246;21.054;2023-10-13T05:28:24;100658.44;;;7.91;100.00
30897;BME280;64229;52.246;21.054;2023-10-13T05:31:08;100656.06;;;7.77;100.00
30897;BME280;64229;52.246;21.054;2023-10-13T05:33:52;100669.44;;;7.82;100.00
30897;BME280;64229;52.246;21.054;2023-10-13T05:36:36;100677.16;;;7.84;100.00
30897;BME280;64229;52.246;21.054;2023-10-13T05:39:20;100684.69;;;7.87;100.00
30897;BME280;64229;52.246;21.054;2023-10-13T05:42:04;100687.66;;;7.91;100.00
30897;BME280;64229;52.246;21.054;2023-10-13T05:44:49;100683.38;;;7.90;100.00
30897;BME280;64229;52.246;21.054;2023-10-13T05:47:33;100665.25;;;7.87;100.00
30897;BME280;64229;52.246;21.054;2023-10-13T05:50:07;100665.41;;;8.08;100.00
30897;BME280;64229;52.246;21.054;2023-10-13T05:52:46;100674.41;;;8.07;100.00
30897;BME280;64229;52.246;21.054;2023-10-13T05:55:17;100681.00;;;8.05;100.00
30897;BME280;64229;52.246;21.054;2023-10-13T05:58:01;100674.50;;;8.41;100.00
30897;BME280;64229;52.246;21.054;2023-10-13T06:00:45;100682.41;;;8.53;100.00
30897;BME280;64229;52.246;21.054;2023-10-13T06:03:29;100700.84;;;8.43;100.00
30897;BME280;64229;52.246;21.054;2023-10-13T06:06:12;100705.16;;;8.32;100.00
30897;BME280;64229;52.246;21.054;2023-10-13T06:08:56;100713.53;;;8.24;100.00
30897;BME280;64229;52.246;21.054;2023-10-13T06:11:40;100710.44;;;8.15;100.00
30897;BME280;64229;52.246;21.054;2023-10-13T06:14:26;100702.31;;;8.22;100.00
30897;BME280;64229;52.246;21.054;2023-10-13T06:17:10;100708.75;;;8.26;100.00
30897;BME280;64229;52.246;21.054;2023-10-13T06:19:53;100715.00;;;8.31;100.00
30897;BME280;64229;52.246;21.054;2023-10-13T06:22:37;100714.25;;;8.64;100.00
30897;BME280;64229;52.246;21.054;2023-10-13T06:25:41;100720.28;;;8.60;100.00
30897;BME280;64229;52.246;21.054;2023-10-13T06:28:25;100727.56;;;8.64;100.00
30897;BME280;64229;52.246;21.054;2023-10-13T06:31:09;100733.28;;;8.73;100.00
30897;BME280;64229;52.246;21.054;2023-10-13T06:33:47;100722.78;;;8.66;100.00
30897;BME280;64229;52.246;21.054;2023-10-13T06:36:13;100728.19;;;8.72;100.00
30897;BME280;64229;52.246;21.054;2023-10-13T06:38:38;100726.25;;;8.67;100.00
30897;BME280;64229;52.246;21.054;2023-10-13T06:41:05;100725.78;;;8.70;100.00
30897;BME280;64229;52.246;21.054;2023-10-13T06:43:37;100723.78;;;8.77;100.00
30897;BME280;64229;52.246;21.054;2023-10-13T06:46:08;100716.91;;;8.81;100.00
30897;BME280;64229;52.246;21.054;2023-10-13T06:48:39;100715.28;;;8.80;100.00
30897;BME280;64229;52.246;21.054;2023-10-13T06:51:05;100726.44;;;8.77;100.00
30897;BME280;64229;52.246;21.054;2023-10-13T06:53:43;100723.38;;;8.85;100.00
30897;BME280;64229;52.246;21.054;2023-10-13T06:56:12;100720.06;;;8.95;100.00
30897;BME280;64229;52.246;21.054;2023-10-13T06:58:43;100725.03;;;9.08;100.00
30897;BME280;64229;52.246;21.054;2023-10-13T07:01:09;100711.63;;;9.20;100.00
30897;BME280;64229;52.246;21.054;2023-10-13T07:03:41;100705.16;;;9.33;100.00
30897;BME280;64229;52.246;21.054;2023-10-13T07:06:07;100706.22;;;9.53;100.00
30897;BME280;64229;52.246;21.054;2023-10-13T07:08:36;100710.50;;;9.76;100.00
30897;BME280;64229;52.246;21.054;2023-10-13T07:11:02;100714.66;;;9.89;100.00
30897;BME280;64229;52.246;21.054;2023-10-13T07:13:30;100721.22;;;10.03;100.00
30897;BME280;64229;52.246;21.054;2023-10-13T07:15:56;100724.91;;;10.24;100.00
30897;BME280;64229;52.246;21.054;2023-10-13T07:18:31;100724.97;;;10.29;100.00
30897;BME280;64229;52.246;21.054;2023-10-13T07:21:08;100703.13;;;10.32;100.00
30897;BME280;64229;52.246;21.054;2023-10-13T07:23:37;100715.28;;;10.50;100.00
30897;BME280;64229;52.246;21.054;2023-10-13T07:26:03;100722.53;;;10.55;100.00
30897;BME280;64229;52.246;21.054;2023-10-13T07:28:30;100727.34;;;10.53;100.00
30897;BME280;64229;52.246;21.054;2023-10-13T07:30:59;100721.41;;;10.46;100.00
30897;BME280;64229;52.246;21.054;2023-10-13T07:33:24;100728.34;;;10.47;100.00
30897;BME280;64229;52.246;21.054;2023-10-13T07:36:06;100721.66;;;10.44;100.00
30897;BME280;64229;52.246;21.054;2023-10-13T07:38:45;100716.34;;;10.49;100.00
30897;BME280;64229;52.246;21.054;2023-10-13T07:41:24;100716.41;;;10.54;100.00
30897;BME280;64229;52.246;21.054;2023-10-13T07:43:55;100719.16;;;10.64;100.00
30897;BME280;64229;52.246;21.054;2023-10-13T07:46:22;100719.44;;;10.68;100.00
30897;BME280;64229;52.246;21.054;2023-10-13T07:48:55;100720.97;;;10.91;100.00
30897;BME280;64229;52.246;21.054;2023-10-13T07:51:24;100719.44;;;11.00;100.00
30897;BME280;64229;52.246;21.054;2023-10-13T07:53:51;100699.25;;;11.19;100.00
30897;BME280;64229;52.246;21.054;2023-10-13T07:56:18;100707.88;;;11.37;100.00
30897;BME280;64229;52.246;21.054;2023-10-13T07:58:44;100702.53;;;11.32;100.00
30897;BME280;64229;52.246;21.054;2023-10-13T08:01:25;100693.81;;;11.04;100.00
30897;BME280;64229;52.246;21.054;2023-10-13T08:03:51;100701.47;;;10.90;100.00
30897;BME280;64229;52.246;21.054;2023-10-13T08:06:30;100697.19;;;10.89;100.00
30897;BME280;64229;52.246;21.054;2023-10-13T08:08:55;100679.84;;;10.92;100.00
30897;BME280;64229;52.246;21.054;2023-10-13T08:11:34;100695.19;;;11.07;100.00
30897;BME280;64229;52.246;21.054;2023-10-13T08:14:01;100690.91;;;11.11;100.00
30897;BME280;64229;52.246;21.054;2023-10-13T08:16:38;100685.91;;;11.19;100.00
30897;BME280;64229;52.246;21.054;2023-10-13T08:19:16;100686.22;;;11.33;100.00
30897;BME280;64229;52.246;21.054;2023-10-13T08:21:43;100691.19;;;11.14;100.00
30897;BME280;64229;52.246;21.054;2023-10-13T08:24:18;100680.19;;;11.06;100.00
30897;BME280;64229;52.246;21.054;2023-10-13T08:27:01;100686.84;;;10.98;100.00
30897;BME280;64229;52.246;21.054;2023-10-13T08:29:46;100682.84;;;11.06;100.00
30897;BME280;64229;52.246;21.054;2023-10-13T08:32:25;100684.91;;;11.36;100.00
30897;BME280;64229;52.246;21.054;2023-10-13T08:34:50;100664.66;;;11.50;100.00
30897;BME280;64229;52.246;21.054;2023-10-13T08:37:18;100664.94;;;11.58;100.00
30897;BME280;64229;52.246;21.054;2023-10-13T08:39:59;100665.72;;;11.54;100.00
30897;BME280;64229;52.246;21.054;2023-10-13T08:42:30;100657.81;;;11.79;100.00
30897;BME280;64229;52.246;21.054;2023-10-13T08:45:17;100671.81;;;12.02;100.00
30897;BME280;64229;52.246;21.054;2023-10-13T08:47:52;100668.22;;;11.76;100.00
30897;BME280;64229;52.246;21.054;2023-10-13T08:50:44;100674.81;;;11.53;100.00
30897;BME280;64229;52.246;21.054;2023-10-13T08:53:23;100677.50;;;11.53;100.00
30897;BME280;64229;52.246;21.054;2023-10-13T08:56:02;100672.47;;;11.67;100.00
30897;BME280;64229;52.246;21.054;2023-10-13T08:58:45;100675.69;;;11.74;100.00
30897;BME280;64229;52.246;21.054;2023-10-13T09:04:02;100685.66;;;11.88;100.00
30897;BME280;64229;52.246;21.054;2023-10-13T09:06:46;100667.47;;;11.85;100.00
30897;BME280;64229;52.246;21.054;2023-10-13T09:09:13;100667.22;;;11.82;100.00
30897;BME280;64229;52.246;21.054;2023-10-13T09:11:53;100674.16;;;11.88;100.00
30897;BME280;64229;52.246;21.054;2023-10-13T09:14:32;100662.97;;;12.11;100.00
30897;BME280;64229;52.246;21.054;2023-10-13T09:17:07;100664.84;;;12.21;100.00
30897;BME280;64229;52.246;21.054;2023-10-13T09:19:47;100672.13;;;12.36;100.00
30897;BME280;64229;52.246;21.054;2023-10-13T09:22:20;100670.50;;;12.40;100.00
30897;BME280;64229;52.246;21.054;2023-10-13T09:24:54;100665.16;;;12.65;100.00
30897;BME280;64229;52.246;21.054;2023-10-13T09:27:23;100660.56;;;12.91;100.00
30897;BME280;64229;52.246;21.054;2023-10-13T09:29:59;100663.78;;;12.88;100.00
30897;BME280;64229;52.246;21.054;2023-10-13T09:32:33;100658.72;;;12.87;100.00
30897;BME280;64229;52.246;21.054;2023-10-13T09:35:14;100649.59;;;12.88;100.00
30897;BME280;64229;52.246;21.054;2023-10-13T09:37:42;100660.25;;;13.23;100.00
30897;BME280;64229;52.246;21.054;2023-10-13T09:40:07;100650.56;;;13.27;99.80
30897;BME280;64229;52.246;21.054;2023-10-13T09:42:50;100656.19;;;13.16;100.00
30897;BME280;64229;52.246;21.054;2023-10-13T09:45:15;100651.41;;;13.23;100.00
30897;BME280;64229;52.246;21.054;2023-10-13T09:47:45;100653.53;;;13.16;100.00
30897;BME280;64229;52.246;21.054;2023-10-13T09:50:17;100636.13;;;13.13;100.00
30897;BME280;64229;52.246;21.054;2023-10-13T09:52:50;100633.41;;;13.28;100.00
30897;BME280;64229;52.246;21.054;2023-10-13T09:55:26;100631.84;;;13.22;100.00
30897;BME280;64229;52.246;21.054;2023-10-13T09:58:02;100625.50;;;13.57;100.00
30897;BME280;64229;52.246;21.054;2023-10-13T10:00:40;100617.72;;;13.61;98.82
30897;BME280;64229;52.246;21.054;2023-10-13T10:03:06;100615.94;;;13.41;99.04
30897;BME280;64229;52.246;21.054;2023-10-13T10:05:56;100625.88;;;13.41;100.00
30897;BME280;64229;52.246;21.054;2023-10-13T10:08:29;100623.72;;;13.43;99.92
30897;BME280;64229;52.246;21.054;2023-10-13T10:11:18;100621.03;;;13.43;100.00
30897;BME280;64229;52.246;21.054;2023-10-13T10:14:10;100620.00;;;13.28;100.00
30897;BME280;64229;52.246;21.054;2023-10-13T10:17:05;100608.47;;;13.18;100.00
30897;BME280;64229;52.246;21.054;2023-10-13T10:19:55;100611.75;;;13.20;100.00
30897;BME280;64229;52.246;21.054;2023-10-13T10:22:30;100601.00;;;13.25;100.00
30897;BME280;64229;52.246;21.054;2023-10-13T10:24:59;100599.59;;;13.38;100.00
30897;BME280;64229;52.246;21.054;2023-10-13T10:27:29;100596.53;;;13.59;100.00
30897;BME280;64229;52.246;21.054;2023-10-13T10:29:55;100593.13;;;13.93;100.00
30897;BME280;64229;52.246;21.054;2023-10-13T10:32:31;100589.22;;;14.09;99.54
30897;BME280;64229;52.246;21.054;2023-10-13T10:35:06;100595.28;;;14.25;98.85
30897;BME280;64229;52.246;21.054;2023-10-13T10:37:56;100574.72;;;14.10;99.00
30897;BME280;64229;52.246;21.054;2023-10-13T10:40:28;100571.38;;;13.95;100.00
30897;BME280;64229;52.246;21.054;2023-10-13T10:43:13;100579.97;;;13.92;100.00
30897;BME280;64229;52.246;21.054;2023-10-13T10:45:46;100569.16;;;14.02;100.00
30897;BME280;64229;52.246;21.054;2023-10-13T10:48:12;100572.63;;;14.36;99.52
30897;BME280;64229;52.246;21.054;2023-10-13T10:50:54;100567.31;;;14.60;98.38
30897;BME280;64229;52.246;21.054;2023-10-13T10:53:21;100555.75;;;14.31;98.51
30897;BME280;64229;52.246;21.054;2023-10-13T10:55:47;100568.31;;;14.35;99.34
30897;BME280;64229;52.246;21.054;2023-10-13T10:58:13;100551.22;;;14.60;98.43
30897;BME280;64229;52.246;21.054;2023-10-13T11:01:06;100539.25;;;14.71;97.90
30897;BME280;64229;52.246;21.054;2023-10-13T11:03:56;100544.25;;;14.59;98.60
30897;BME280;64229;52.246;21.054;2023-10-13T11:06:27;100542.00;;;14.66;98.59
30897;BME280;64229;52.246;21.054;2023-10-13T11:09:04;100542.56;;;14.63;99.01
30897;BME280;64229;52.246;21.054;2023-10-13T11:11:43;100543.19;;;14.55;99.96
30897;BME280;64229;52.246;21.054;2023-10-13T11:14:19;100532.19;;;14.81;98.71
30897;BME280;64229;52.246;21.054;2023-10-13T11:16:48;100539.31;;;14.90;98.50
30897;BME280;64229;52.246;21.054;2023-10-13T11:19:41;100525.00;;;14.95;98.51
30897;BME280;64229;52.246;21.054;2023-10-13T11:22:15;100524.91;;;15.24;97.83
30897;BME280;64229;52.246;21.054;2023-10-13T11:25:03;100525.19;;;15.22;97.85
30897;BME280;64229;52.246;21.054;2023-10-13T11:27:43;100511.69;;;15.27;97.60
30897;BME280;64229;52.246;21.054;2023-10-13T11:30:15;100508.56;;;15.39;96.86
30897;BME280;64229;52.246;21.054;2023-10-13T11:32:45;100495.50;;;15.32;97.19
30897;BME280;64229;52.246;21.054;2023-10-13T11:35:12;100503.69;;;15.60;97.39
30897;BME280;64229;52.246;21.054;2023-10-13T11:37:47;100489.06;;;15.85;95.23
30897;BME280;64229;52.246;21.054;2023-10-13T11:40:22;100483.94;;;15.83;94.89
30897;BME280;64229;52.246;21.054;2023-10-13T11:43:07;100493.66;;;15.84;95.21
30897;BME280;64229;52.246;21.054;2023-10-13T11:45:39;100486.72;;;15.78;95.87
30897;BME280;64229;52.246;21.054;2023-10-13T11:48:18;100486.44;;;15.80;96.11
30897;BME280;64229;52.246;21.054;2023-10-13T11:50:49;100487.34;;;15.75;97.00
30897;BME280;64229;52.246;21.054;2023-10-13T11:53:14;100481.50;;;16.01;95.71
30897;BME280;64229;52.246;21.054;2023-10-13T11:55:39;100481.81;;;16.13;95.13
30897;BME280;64229;52.246;21.054;2023-10-13T11:58:04;100492.34;;;16.28;94.68
30897;BME280;64229;52.246;21.054;2023-10-13T12:00:31;100475.75;;;16.21;94.10
30897;BME280;64229;52.246;21.054;2023-10-13T12:03:15;100477.47;;;16.31;93.43
30897;BME280;64229;52.246;21.054;2023-10-13T12:05:59;100478.88;;;16.42;93.54
30897;BME280;64229;52.246;21.054;2023-10-13T12:08:43;100470.28;;;16.54;92.64
30897;BME280;64229;52.246;21.054;2023-10-13T12:11:18;100470.69;;;16.61;92.23
30897;BME280;64229;52.246;21.054;2023-10-13T12:13:55;100464.00;;;16.58;92.21
30897;BME280;64229;52.246;21.054;2023-10-13T12:16:21;100460.00;;;16.56;92.10
30897;BME280;64229;52.246;21.054;2023-10-13T12:18:47;100469.72;;;16.70;92.15
30897;BME280;64229;52.246;21.054;2023-10-13T12:21:18;100459.22;;;16.83;91.78
30897;BME280;64229;52.246;21.054;2023-10-13T12:23:46;100453.34;;;16.81;91.15
30897;BME280;64229;52.246;21.054;2023-10-13T12:26:11;100449.81;;;16.94;91.07
30897;BME280;64229;52.246;21.054;2023-10-13T12:28:45;100438.03;;;16.90;91.63
30897;BME280;64229;52.246;21.054;2023-10-13T12:31:16;100434.34;;;16.86;90.69
30897;BME280;64229;52.246;21.054;2023-10-13T12:33:42;100442.63;;;16.89;91.12
30897;BME280;64229;52.246;21.054;2023-10-13T12:36:12;100437.44;;;16.79;92.23
30897;BME280;64229;52.246;21.054;2023-10-13T12:38:47;100430.25;;;16.88;91.77
30897;BME280;64229;52.246;21.054;2023-10-13T12:41:19;100424.78;;;16.80;92.67
30897;BME280;64229;52.246;21.054;2023-10-13T12:44:04;100423.66;;;16.94;92.15
30897;BME280;64229;52.246;21.054;2023-10-13T12:46:49;100402.97;;;16.90;91.77
30897;BME280;64229;52.246;21.054;2023-10-13T12:49:33;100409.00;;;16.87;92.71
30897;BME280;64229;52.246;21.054;2023-10-13T12:52:11;100413.75;;;16.90;92.82
30897;BME280;64229;52.246;21.054;2023-10-13T12:54:51;100420.66;;;16.96;92.55
30897;BME280;64229;52.246;21.054;2023-10-13T12:57:22;100416.97;;;16.92;92.97
30897;BME280;64229;52.246;21.054;2023-10-13T12:59:51;100405.00;;;16.84;93.41
30897;BME280;64229;52.246;21.054;2023-10-13T13:02:25;100403.09;;;16.85;93.61
30897;BME280;64229;52.246;21.054;2023-10-13T13:04:55;100388.75;;;16.75;94.14
30897;BME280;64229;52.246;21.054;2023-10-13T13:07:47;100395.66;;;16.68;95.21
30897;BME280;64229;52.246;21.054;2023-10-13T13:10:15;100400.28;;;16.90;94.39
30897;BME280;64229;52.246;21.054;2023-10-13T13:12:41;100408.09;;;16.77;95.09
30897;BME280;64229;52.246;21.054;2023-10-13T13:15:06;100408.03;;;16.69;96.32